createdAt,value
2022-12-25T00:01:14.514Z,101395.94
2022-12-25T00:03:42.947Z,101402.81
2022-12-25T00:06:10.450Z,101400.25
2022-12-25T00:08:38.477Z,101405.44
2022-12-25T00:11:16.106Z,101401.97
2022-12-25T00:13:44.294Z,101396.81
2022-12-25T00:16:15.540Z,101401.91
2022-12-25T00:18:43.128Z,101408.72
2022-12-25T00:21:10.764Z,101407.09
2022-12-25T00:23:38.478Z,101408.03
2022-12-25T00:26:07.239Z,101402.88
2022-12-25T00:28:35.941Z,101407.22
2022-12-25T00:31:08.013Z,101408.09
2022-12-25T00:33:39.279Z,101411.69
2022-12-25T00:36:06.951Z,101411.91
2022-12-25T00:38:34.958Z,101413.84
2022-12-25T00:41:06.929Z,101407.88
2022-12-25T00:43:33.988Z,101405.41
2022-12-25T00:46:02.409Z,101410.56
2022-12-25T00:48:30.267Z,101409.88
2022-12-25T00:50:58.686Z,101410.97
2022-12-25T00:53:26.799Z,101412.72
2022-12-25T00:55:58.603Z,101409.31
2022-12-25T00:58:26.732Z,101399.91
2022-12-25T01:00:54.225Z,101406.06
2022-12-25T01:03:21.889Z,101413.84
2022-12-25T01:05:56.405Z,101414.75
2022-12-25T01:08:23.885Z,101411.34
2022-12-25T01:10:58.629Z,101413.16
2022-12-25T01:13:26.335Z,101414.00
2022-12-25T01:15:54.406Z,101414.03
2022-12-25T01:18:22.546Z,101420.09
2022-12-25T01:20:49.795Z,101417.50
2022-12-25T01:23:17.104Z,101420.16
2022-12-25T01:25:44.205Z,101420.22
2022-12-25T01:28:11.370Z,101437.47
2022-12-25T01:30:38.487Z,101432.31
2022-12-25T01:33:05.629Z,101434.06
2022-12-25T01:35:32.655Z,101422.88
2022-12-25T01:37:59.642Z,101428.88
2022-12-25T01:40:26.739Z,101425.44
2022-12-25T01:42:53.771Z,101422.00
2022-12-25T01:45:26.952Z,101426.28
2022-12-25T01:47:54.042Z,101423.75
2022-12-25T01:50:21.121Z,101432.34
2022-12-25T01:52:49.220Z,101432.31
2022-12-25T01:55:16.428Z,101425.44
2022-12-25T01:57:43.812Z,101434.09
2022-12-25T02:00:12.750Z,101430.63
2022-12-25T02:02:41.403Z,101429.81
2022-12-25T02:05:14.983Z,101437.53
2022-12-25T02:07:42.935Z,101436.69
2022-12-25T02:10:10.920Z,101427.28
2022-12-25T02:12:38.699Z,101438.44
2022-12-25T02:15:14.339Z,101431.59
2022-12-25T02:17:46.608Z,101439.31
2022-12-25T02:20:17.002Z,101438.50
2022-12-25T02:23:03.320Z,101438.53
2022-12-25T02:25:43.505Z,101429.03
2022-12-25T02:28:16.490Z,101434.16
2022-12-25T02:30:51.545Z,101443.63
2022-12-25T02:33:43.014Z,101440.22
2022-12-25T02:36:11.420Z,101437.66
2022-12-25T02:39:00.172Z,101437.69
2022-12-25T02:41:28.573Z,101441.09
2022-12-25T02:44:15.634Z,101439.31
2022-12-25T02:47:02.238Z,101438.44
2022-12-25T02:49:48.988Z,101431.63
2022-12-25T02:52:38.249Z,101435.09
2022-12-25T02:55:26.541Z,101435.97
2022-12-25T02:58:14.455Z,101434.25
2022-12-25T03:01:03.819Z,101448.81
2022-12-25T03:03:52.134Z,101434.25
2022-12-25T03:06:39.788Z,101430.81
2022-12-25T03:09:27.075Z,101434.25
2022-12-25T03:12:01.123Z,101438.53
2022-12-25T03:14:47.226Z,101435.97
2022-12-25T03:17:15.219Z,101432.53
2022-12-25T03:20:01.923Z,101436.00
2022-12-25T03:22:49.253Z,101434.25
2022-12-25T03:25:35.892Z,101428.25
2022-12-25T03:28:03.885Z,101434.28
2022-12-25T03:30:58.790Z,101432.56
2022-12-25T03:34:09.123Z,101446.31
2022-12-25T03:37:10.414Z,101432.56
2022-12-25T03:39:54.741Z,101429.13
2022-12-25T03:42:43.420Z,101430.81
2022-12-25T03:45:43.445Z,101429.97
2022-12-25T03:48:13.114Z,101432.63
2022-12-25T03:51:04.903Z,101430.91
2022-12-25T03:53:54.574Z,101427.47
2022-12-25T03:56:40.891Z,101432.63
2022-12-25T03:59:26.771Z,101425.75
2022-12-25T04:02:12.779Z,101430.00
2022-12-25T04:04:58.669Z,101430.88
2022-12-25T04:07:44.562Z,101434.31
2022-12-25T04:10:30.384Z,101436.91
2022-12-25T04:13:16.172Z,101443.75
2022-12-25T04:16:02.003Z,101451.47
2022-12-25T04:18:47.911Z,101446.34
2022-12-25T04:21:33.847Z,101439.47
2022-12-25T04:24:19.665Z,101435.19
2022-12-25T04:27:05.780Z,101439.50
2022-12-25T04:29:51.672Z,101430.91
2022-12-25T04:32:37.417Z,101448.09
2022-12-25T04:35:23.298Z,101444.69
2022-12-25T04:37:50.442Z,101442.09
2022-12-25T04:40:17.817Z,101453.25
2022-12-25T04:42:44.899Z,101454.13
2022-12-25T04:45:12.008Z,101454.97
2022-12-25T04:47:39.009Z,101454.97
2022-12-25T04:50:06.885Z,101456.69
2022-12-25T04:52:37.640Z,101466.13
2022-12-25T04:55:05.511Z,101452.41
2022-12-25T04:57:32.862Z,101453.25
2022-12-25T05:00:00.016Z,101461.84
2022-12-25T05:02:27.271Z,101461.81
2022-12-25T05:04:54.381Z,101474.69
2022-12-25T05:07:21.483Z,101472.13
2022-12-25T05:09:48.727Z,101474.69
2022-12-25T05:12:15.804Z,101463.50
2022-12-25T05:14:42.874Z,101472.03
2022-12-25T05:17:09.893Z,101475.47
2022-12-25T05:19:37.006Z,101473.72
2022-12-25T05:22:04.116Z,101476.25
2022-12-25T05:24:31.197Z,101478.84
2022-12-25T05:26:58.306Z,101473.66
2022-12-25T05:29:25.479Z,101475.38
2022-12-25T05:31:52.545Z,101475.34
2022-12-25T05:34:19.607Z,101465.03
2022-12-25T05:36:46.623Z,101466.75
2022-12-25T05:39:13.681Z,101463.31
2022-12-25T05:41:40.712Z,101473.63
2022-12-25T05:44:07.915Z,101477.09
2022-12-25T05:46:37.313Z,101478.78
2022-12-25T05:49:05.631Z,101471.94
2022-12-25T05:51:33.053Z,101473.66
2022-12-25T05:54:00.387Z,101473.72
2022-12-25T05:56:27.529Z,101478.00
2022-12-25T05:58:54.854Z,101478.00
2022-12-25T06:01:23.796Z,101482.28
2022-12-25T06:03:51.003Z,101484.88
2022-12-25T06:06:18.572Z,101489.16
2022-12-25T06:08:46.021Z,101487.47
2022-12-25T06:11:13.968Z,101497.75
2022-12-25T06:13:41.013Z,101501.19
2022-12-25T06:16:09.554Z,101502.94
2022-12-25T06:18:41.188Z,101503.78
2022-12-25T06:21:09.523Z,101499.50
2022-12-25T06:23:37.338Z,101505.47
2022-12-25T06:26:06.141Z,101509.72
2022-12-25T06:28:33.178Z,101516.63
2022-12-25T06:31:05.643Z,101508.06
2022-12-25T06:33:32.744Z,101510.59
2022-12-25T06:36:00.073Z,101520.03
2022-12-25T06:38:28.154Z,101525.19
2022-12-25T06:40:55.172Z,101518.28
2022-12-25T06:43:22.169Z,101521.72
2022-12-25T06:45:51.087Z,101518.28
2022-12-25T06:48:18.130Z,101517.34
2022-12-25T06:50:45.251Z,101516.41
2022-12-25T06:53:12.300Z,101525.00
2022-12-25T06:55:39.401Z,101522.41
2022-12-25T06:58:06.623Z,101525.81
2022-12-25T07:00:33.672Z,101515.47
2022-12-25T07:03:00.843Z,101528.34
2022-12-25T07:05:27.920Z,101528.34
2022-12-25T07:07:55.041Z,101528.34
2022-12-25T07:10:22.057Z,101530.91
2022-12-25T07:12:49.379Z,101527.47
2022-12-25T07:15:16.526Z,101536.03
2022-12-25T07:17:43.737Z,101540.28
2022-12-25T07:20:10.871Z,101547.13
2022-12-25T07:22:38.601Z,101544.53
2022-12-25T07:25:05.867Z,101535.06
2022-12-25T07:27:33.323Z,101534.16
2022-12-25T07:30:00.475Z,101541.03
2022-12-25T07:32:30.201Z,101543.59
2022-12-25T07:34:57.226Z,101546.97
2022-12-25T07:37:24.384Z,101543.50
2022-12-25T07:39:51.446Z,101546.03
2022-12-25T07:42:24.805Z,101552.09
2022-12-25T07:44:54.627Z,101558.06
2022-12-25T07:47:21.652Z,101565.78
2022-12-25T07:49:48.707Z,101562.34
2022-12-25T07:52:15.849Z,101570.03
2022-12-25T07:54:42.958Z,101569.16
2022-12-25T07:57:09.920Z,101571.72
2022-12-25T07:59:36.993Z,101576.84
2022-12-25T08:02:04.229Z,101576.88
2022-12-25T08:04:31.599Z,101586.22
2022-12-25T08:06:58.606Z,101587.94
2022-12-25T08:09:25.681Z,101588.78
2022-12-25T08:11:52.683Z,101592.22
2022-12-25T08:14:19.934Z,101593.03
2022-12-25T08:16:47.151Z,101599.91
2022-12-25T08:19:14.877Z,101603.31
2022-12-25T08:21:42.025Z,101608.47
2022-12-25T08:24:09.200Z,101594.66
2022-12-25T08:26:36.194Z,101602.38
2022-12-25T08:29:03.589Z,101590.25
2022-12-25T08:31:31.205Z,101595.41
2022-12-25T08:33:58.908Z,101603.13
2022-12-25T08:36:26.121Z,101603.03
2022-12-25T08:38:55.640Z,101600.34
2022-12-25T08:41:26.224Z,101606.25
2022-12-25T08:43:53.389Z,101613.91
2022-12-25T08:46:20.905Z,101618.19
2022-12-25T08:48:49.168Z,101619.03
2022-12-25T08:51:17.702Z,101620.69
2022-12-25T08:53:45.944Z,101629.19
2022-12-25T08:56:14.096Z,101631.50
2022-12-25T08:58:41.474Z,101631.53
2022-12-25T09:01:08.812Z,101631.41
2022-12-25T09:03:36.145Z,101643.25
2022-12-25T09:06:04.481Z,101648.41
2022-12-25T09:08:31.731Z,101645.06
2022-12-25T09:11:02.582Z,101646.81
2022-12-25T09:13:29.899Z,101654.53
2022-12-25T09:15:57.096Z,101659.63
2022-12-25T09:18:24.221Z,101640.34
2022-12-25T09:20:58.784Z,101647.13
2022-12-25T09:23:26.024Z,101649.59
2022-12-25T09:25:53.095Z,101651.44
2022-12-25T09:28:20.497Z,101654.88
2022-12-25T09:30:50.474Z,101661.41
2022-12-25T09:33:18.020Z,101647.38
2022-12-25T09:35:52.457Z,101654.50
2022-12-25T09:38:19.605Z,101655.44
2022-12-25T09:40:46.628Z,101661.44
2022-12-25T09:43:16.496Z,101650.88
2022-12-25T09:45:44.095Z,101649.22
2022-12-25T09:48:13.727Z,101655.00
2022-12-25T09:50:47.236Z,101659.38
2022-12-25T09:53:25.364Z,101664.47
2022-12-25T09:56:11.051Z,101672.19
2022-12-25T09:58:38.666Z,101665.22
2022-12-25T10:01:24.772Z,101664.94
2022-12-25T10:04:04.016Z,101657.28
2022-12-25T10:06:43.683Z,101660.81
2022-12-25T10:09:26.574Z,101658.97
2022-12-25T10:12:09.101Z,101660.69
2022-12-25T10:15:02.586Z,101661.47
2022-12-25T10:17:29.804Z,101662.22
2022-12-25T10:20:15.593Z,101666.41
2022-12-25T10:22:45.029Z,101658.19
2022-12-25T10:25:15.557Z,101661.72
2022-12-25T10:27:43.094Z,101659.13
2022-12-25T10:30:17.321Z,101654.69
2022-12-25T10:32:45.364Z,101656.31
2022-12-25T10:35:14.289Z,101657.94
2022-12-25T10:37:42.248Z,101655.19
2022-12-25T10:40:26.512Z,101652.72
2022-12-25T10:42:57.485Z,101652.41
2022-12-25T10:45:24.488Z,101656.81
2022-12-25T10:48:07.159Z,101650.22
2022-12-25T10:50:42.352Z,101662.41
2022-12-25T10:53:16.944Z,101651.16
2022-12-25T10:55:53.385Z,101650.47
2022-12-25T10:58:20.804Z,101638.41
2022-12-25T11:00:52.228Z,101634.97
2022-12-25T11:03:31.011Z,101636.66
2022-12-25T11:05:58.215Z,101632.50
2022-12-25T11:08:27.164Z,101637.81
2022-12-25T11:10:58.788Z,101626.53
2022-12-25T11:13:27.788Z,101627.50
2022-12-25T11:16:04.253Z,101624.75
2022-12-25T11:18:43.309Z,101621.41
2022-12-25T11:21:29.425Z,101618.34
2022-12-25T11:23:58.414Z,101606.19
2022-12-25T11:26:26.253Z,101606.06
2022-12-25T11:28:55.335Z,101600.97
2022-12-25T11:31:27.827Z,101598.84
2022-12-25T11:34:07.537Z,101591.34
2022-12-25T11:36:37.662Z,101595.75
2022-12-25T11:39:13.956Z,101597.28
2022-12-25T11:41:41.529Z,101597.81
2022-12-25T11:44:16.125Z,101614.16
2022-12-25T11:46:45.701Z,101598.69
2022-12-25T11:49:15.518Z,101603.72
2022-12-25T11:51:44.979Z,101596.38
2022-12-25T11:54:18.237Z,101592.13
2022-12-25T11:56:45.304Z,101596.00
2022-12-25T11:59:22.534Z,101592.53
2022-12-25T12:01:55.086Z,101589.38
2022-12-25T12:04:31.790Z,101589.47
2022-12-25T12:07:05.965Z,101588.88
2022-12-25T12:09:46.400Z,101586.34
2022-12-25T12:12:32.253Z,101582.06
2022-12-25T12:15:14.430Z,101588.47
2022-12-25T12:17:41.509Z,101579.50
2022-12-25T12:20:28.540Z,101583.78
2022-12-25T12:22:56.172Z,101579.50
2022-12-25T12:25:23.425Z,101573.72
2022-12-25T12:28:04.519Z,101561.59
2022-12-25T12:30:34.760Z,101566.13
2022-12-25T12:33:03.653Z,101570.59
2022-12-25T12:35:33.229Z,101559.41
2022-12-25T12:38:14.159Z,101569.81
2022-12-25T12:40:51.913Z,101573.19
2022-12-25T12:43:34.737Z,101574.16
2022-12-25T12:46:15.812Z,101569.03
2022-12-25T12:48:45.633Z,101564.38
2022-12-25T12:51:14.413Z,101563.31
2022-12-25T12:53:42.706Z,101568.88
2022-12-25T12:56:09.865Z,101572.25
2022-12-25T12:58:38.122Z,101567.25
2022-12-25T13:01:10.364Z,101563.75
2022-12-25T13:03:40.322Z,101564.84
2022-12-25T13:06:10.596Z,101567.06
2022-12-25T13:08:55.186Z,101570.38
2022-12-25T13:11:26.759Z,101568.28
2022-12-25T13:13:54.918Z,101572.22
2022-12-25T13:16:29.295Z,101582.56
2022-12-25T13:18:56.689Z,101577.47
2022-12-25T13:21:28.923Z,101580.81
2022-12-25T13:23:57.308Z,101578.59
2022-12-25T13:26:24.681Z,101582.03
2022-12-25T13:28:51.886Z,101580.63
2022-12-25T13:31:20.412Z,101574.06
2022-12-25T13:33:53.708Z,101575.13
2022-12-25T13:36:21.015Z,101573.59
2022-12-25T13:38:50.622Z,101577.91
2022-12-25T13:41:44.702Z,101578.16
2022-12-25T13:44:19.178Z,101586.91
2022-12-25T13:46:47.161Z,101586.91
2022-12-25T13:49:15.563Z,101580.81
2022-12-25T13:51:43.159Z,101586.16
2022-12-25T13:54:11.777Z,101586.44
2022-12-25T13:56:52.977Z,101584.75
2022-12-25T13:59:23.831Z,101585.88
2022-12-25T14:01:53.746Z,101587.59
2022-12-25T14:04:22.555Z,101585.22
2022-12-25T14:06:50.198Z,101583.69
2022-12-25T14:09:18.138Z,101594.19
2022-12-25T14:11:46.677Z,101593.19
2022-12-25T14:14:24.643Z,101591.66
2022-12-25T14:16:53.571Z,101599.59
2022-12-25T14:19:30.052Z,101595.09
2022-12-25T14:22:01.459Z,101597.84
2022-12-25T14:24:30.256Z,101598.00
2022-12-25T14:26:59.285Z,101597.16
2022-12-25T14:29:29.261Z,101595.47
2022-12-25T14:31:58.067Z,101596.47
2022-12-25T14:34:26.211Z,101599.09
2022-12-25T14:36:53.580Z,101600.03
2022-12-25T14:39:41.024Z,101602.63
2022-12-25T14:42:13.585Z,101605.91
2022-12-25T14:44:40.921Z,101606.84
2022-12-25T14:47:10.991Z,101598.31
2022-12-25T14:49:38.388Z,101607.00
2022-12-25T14:52:15.578Z,101603.66
2022-12-25T14:54:50.927Z,101603.66
2022-12-25T14:57:24.866Z,101601.16
2022-12-25T14:59:55.687Z,101598.59
2022-12-25T15:02:23.040Z,101600.50
2022-12-25T15:04:50.260Z,101608.31
2022-12-25T15:07:43.799Z,101616.19
2022-12-25T15:10:57.510Z,101616.19
2022-12-25T15:13:00.151Z,101612.72
2022-12-25T15:15:27.855Z,101619.72
2022-12-25T15:17:55.549Z,101625.81
2022-12-25T15:20:25.916Z,101618.06
2022-12-25T15:23:18.288Z,101620.66
2022-12-25T15:25:40.203Z,101625.03
2022-12-25T15:28:12.871Z,101627.63
2022-12-25T15:30:40.483Z,101633.66
2022-12-25T15:33:08.003Z,101630.16
2022-12-25T15:35:38.465Z,101626.66
2022-12-25T15:38:05.803Z,101630.16
2022-12-25T15:40:33.266Z,101620.66
2022-12-25T15:43:00.386Z,101626.75
2022-12-25T15:45:28.871Z,101619.91
2022-12-25T15:47:56.402Z,101632.09
2022-12-25T15:50:24.180Z,101630.38
2022-12-25T15:52:51.364Z,101630.47
2022-12-25T15:55:18.580Z,101615.06
2022-12-25T15:57:48.337Z,101613.56
2022-12-25T16:00:22.755Z,101619.81
2022-12-25T16:02:50.347Z,101617.38
2022-12-25T16:05:17.835Z,101623.47
2022-12-25T16:07:45.315Z,101608.88
2022-12-25T16:10:18.196Z,101624.19
2022-12-25T16:12:46.579Z,101626.06
2022-12-25T16:15:15.416Z,101625.03
2022-12-25T16:17:43.059Z,101627.63
2022-12-25T16:20:10.714Z,101631.28
2022-12-25T16:22:40.950Z,101623.72
2022-12-25T16:25:17.815Z,101626.47
2022-12-25T16:27:45.659Z,101627.34
2022-12-25T16:30:15.736Z,101617.06
2022-12-25T16:32:44.188Z,101625.78
2022-12-25T16:35:12.440Z,101628.47
2022-12-25T16:37:40.154Z,101634.53
2022-12-25T16:40:09.676Z,101628.66
2022-12-25T16:42:38.406Z,101631.31
2022-12-25T16:45:06.901Z,101624.50
2022-12-25T16:47:34.839Z,101621.13
2022-12-25T16:50:03.504Z,101629.66
2022-12-25T16:52:33.261Z,101625.28
2022-12-25T16:55:02.276Z,101630.47
2022-12-25T16:57:32.699Z,101629.78
2022-12-25T17:00:00.172Z,101628.13
2022-12-25T17:02:27.877Z,101620.44
2022-12-25T17:04:56.034Z,101633.31
2022-12-25T17:07:23.351Z,101642.78
2022-12-25T17:09:50.790Z,101634.06
2022-12-25T17:12:19.591Z,101616.94
2022-12-25T17:14:47.031Z,101630.69
2022-12-25T17:17:14.389Z,101623.84
2022-12-25T17:19:41.696Z,101630.75
2022-12-25T17:22:09.429Z,101624.63
2022-12-25T17:24:37.623Z,101630.59
2022-12-25T17:27:08.487Z,101632.34
2022-12-25T17:29:40.526Z,101634.94
2022-12-25T17:32:08.641Z,101644.44
2022-12-25T17:34:36.694Z,101625.66
2022-12-25T17:37:06.416Z,101625.63
2022-12-25T17:39:33.799Z,101635.97
2022-12-25T17:42:01.120Z,101641.03
2022-12-25T17:44:28.871Z,101637.63
2022-12-25T17:46:56.612Z,101629.09
2022-12-25T17:49:24.146Z,101637.69
2022-12-25T17:51:53.994Z,101628.28
2022-12-25T17:54:22.301Z,101630.78
2022-12-25T17:56:49.888Z,101630.03
2022-12-25T17:59:21.551Z,101634.38
2022-12-25T18:01:49.175Z,101634.50
2022-12-25T18:04:17.408Z,101653.28
2022-12-25T18:06:45.351Z,101643.94
2022-12-25T18:09:12.800Z,101651.63
2022-12-25T18:11:43.043Z,101646.56
2022-12-25T18:14:14.474Z,101660.28
2022-12-25T18:16:44.497Z,101665.53
2022-12-25T18:19:14.558Z,101670.72
2022-12-25T18:21:42.111Z,101668.09
2022-12-25T18:24:09.913Z,101652.63
2022-12-25T18:26:37.559Z,101658.59
2022-12-25T18:29:07.224Z,101659.34
2022-12-25T18:31:34.991Z,101661.06
2022-12-25T18:34:04.030Z,101665.25
2022-12-25T18:36:31.448Z,101661.59
2022-12-25T18:38:59.357Z,101652.94
2022-12-25T18:41:28.741Z,101652.66
2022-12-25T18:43:56.669Z,101649.19
2022-12-25T18:46:25.445Z,101645.50
2022-12-25T18:48:57.100Z,101662.09
2022-12-25T18:51:27.515Z,101662.03
2022-12-25T18:53:58.598Z,101642.34
2022-12-25T18:56:25.929Z,101652.81
2022-12-25T18:58:53.325Z,101644.22
2022-12-25T19:01:22.939Z,101644.28
2022-12-25T19:03:51.945Z,101652.88
2022-12-25T19:06:22.463Z,101631.44
2022-12-25T19:08:49.986Z,101647.75
2022-12-25T19:11:17.763Z,101640.97
2022-12-25T19:13:45.832Z,101647.03
2022-12-25T19:16:13.392Z,101650.50
2022-12-25T19:18:40.834Z,101653.06
2022-12-25T19:21:09.262Z,101652.97
2022-12-25T19:23:37.947Z,101654.69
2022-12-25T19:26:07.646Z,101641.72
2022-12-25T19:28:36.727Z,101640.09
2022-12-25T19:31:07.683Z,101647.69
2022-12-25T19:33:38.216Z,101641.69
2022-12-25T19:36:08.776Z,101652.03
2022-12-25T19:38:36.853Z,101649.41
2022-12-25T19:41:15.787Z,101639.88
2022-12-25T19:43:47.483Z,101647.75
2022-12-25T19:46:18.081Z,101639.19
2022-12-25T19:48:45.803Z,101647.81
2022-12-25T19:51:21.990Z,101649.56
2022-12-25T19:53:50.111Z,101650.41
2022-12-25T19:56:18.058Z,101651.41
2022-12-25T19:58:46.047Z,101651.47
2022-12-25T20:01:18.692Z,101647.97
2022-12-25T20:03:47.564Z,101661.94
2022-12-25T20:06:20.000Z,101655.03
2022-12-25T20:08:49.870Z,101662.00
2022-12-25T20:11:18.022Z,101665.47
2022-12-25T20:13:45.899Z,101661.19
2022-12-25T20:16:13.571Z,101667.19
2022-12-25T20:18:42.352Z,101674.97
2022-12-25T20:21:16.231Z,101674.88
2022-12-25T20:23:45.333Z,101665.38
2022-12-25T20:26:13.835Z,101661.91
2022-12-25T20:28:42.873Z,101669.63
2022-12-25T20:31:15.989Z,101673.19
2022-12-25T20:33:44.234Z,101668.84
2022-12-25T20:36:12.854Z,101668.91
2022-12-25T20:38:40.723Z,101673.84
2022-12-25T20:41:28.741Z,101673.84
2022-12-25T20:43:57.022Z,101675.50
2022-12-25T20:46:25.776Z,101670.31
2022-12-25T20:48:53.641Z,101675.44
2022-12-25T20:51:23.585Z,101683.44
2022-12-25T20:53:51.995Z,101682.59
2022-12-25T20:56:21.812Z,101685.22
2022-12-25T20:58:56.826Z,101689.66
2022-12-25T21:01:26.089Z,101693.06
2022-12-25T21:03:54.544Z,101695.41
2022-12-25T21:06:23.189Z,101685.88
2022-12-25T21:08:50.843Z,101692.91
2022-12-25T21:11:18.363Z,101696.19
2022-12-25T21:13:46.330Z,101700.69
2022-12-25T21:16:22.268Z,101701.50
2022-12-25T21:18:52.401Z,101694.44
2022-12-25T21:21:20.795Z,101697.06
2022-12-25T21:23:48.225Z,101689.91
2022-12-25T21:26:20.603Z,101695.91
2022-12-25T21:28:54.322Z,101701.44
2022-12-25T21:31:22.314Z,101700.75
2022-12-25T21:33:53.659Z,101693.06
2022-12-25T21:36:33.821Z,101693.81
2022-12-25T21:39:08.052Z,101697.97
2022-12-25T21:41:37.960Z,101701.56
2022-12-25T21:44:06.443Z,101702.63
2022-12-25T21:46:33.947Z,101693.81
2022-12-25T21:49:01.415Z,101701.72
2022-12-25T21:51:49.702Z,101707.03
2022-12-25T21:54:18.488Z,101700.19
2022-12-25T21:56:47.923Z,101701.91
2022-12-25T21:59:18.850Z,101700.22
2022-12-25T22:01:47.672Z,101701.06
2022-12-25T22:04:17.310Z,101700.22
2022-12-25T22:07:04.008Z,101705.47
2022-12-25T22:09:31.619Z,101705.47
2022-12-25T22:12:17.950Z,101703.69
2022-12-25T22:14:55.504Z,101702.00
2022-12-25T22:17:44.316Z,101704.50
2022-12-25T22:20:38.027Z,101708.88
2022-12-25T22:23:05.675Z,101710.75
2022-12-25T22:25:32.831Z,101709.00
2022-12-25T22:28:00.278Z,101709.94
2022-12-25T22:30:28.835Z,101708.22
2022-12-25T22:32:56.418Z,101708.28
2022-12-25T22:35:24.216Z,101715.22
2022-12-25T22:37:51.681Z,101728.19
2022-12-25T22:40:20.390Z,101717.88
2022-12-25T22:42:47.811Z,101724.78
2022-12-25T22:45:15.508Z,101717.88
2022-12-25T22:47:45.225Z,101721.41
2022-12-25T22:50:15.061Z,101728.38
2022-12-25T22:52:42.894Z,101724.03
2022-12-25T22:55:10.463Z,101721.41
2022-12-25T22:57:37.804Z,101711.09
2022-12-25T23:00:08.664Z,101707.75
2022-12-25T23:02:36.251Z,101701.75
2022-12-25T23:05:04.077Z,101717.28
2022-12-25T23:07:31.470Z,101707.81
2022-12-25T23:09:58.703Z,101706.91
2022-12-25T23:12:45.560Z,101706.13
2022-12-25T23:15:12.832Z,101714.78
2022-12-25T23:17:58.773Z,101706.91
2022-12-25T23:20:44.736Z,101714.72
2022-12-25T23:23:34.863Z,101713.84
2022-12-25T23:26:08.991Z,101713.00
2022-12-25T23:28:56.441Z,101702.59
2022-12-25T23:31:28.807Z,101708.63
2022-12-25T23:33:56.532Z,101712.09
2022-12-25T23:36:23.958Z,101706.97
2022-12-25T23:38:51.320Z,101719.94
2022-12-25T23:41:19.236Z,101719.94
2022-12-25T23:43:46.753Z,101710.38
2022-12-25T23:46:15.205Z,101725.03
2022-12-25T23:48:42.632Z,101716.38
2022-12-25T23:51:09.862Z,101716.34
2022-12-25T23:53:37.251Z,101719.78
2022-12-25T23:56:05.052Z,101725.78
2022-12-25T23:58:33.813Z,101710.31
